Time;durP1;ratioP1;P1;durP2;ratioP2;P2;SDS_P1;SDS_P2;PMS_P1;PMS_P2;Temp;Humidity;BMP_temperature;BMP_pressure;BME280_temperature;BME280_humidity;BME280_pressure;Samples;Min_cycle;Max_cycle;Signal;HPM_P1;HPM_P2
2021/07/28 00:01:22;;;;;;;;;10.50;9.75;;;;;20.17;71.33;101036.00;4981959;28;47240;-75
2021/07/28 00:03:49;;;;;;;;;10.25;8.50;;;;;20.17;71.36;101042.22;4992525;28;45175;-75
2021/07/28 00:06:22;;;;;;;;;9.75;7.00;;;;;20.22;70.99;101039.22;4993486;28;45210;-75
2021/07/28 00:08:48;;;;;;;;;13.75;9.00;;;;;20.25;71.10;101044.31;4967539;28;46246;-75
2021/07/28 00:11:14;;;;;;;;;9.00;8.50;;;;;20.27;71.02;101036.22;4982149;28;47022;-75
2021/07/28 00:13:40;;;;;;;;;7.75;7.75;;;;;20.37;71.03;101037.28;4997331;28;45237;-74
2021/07/28 00:16:10;;;;;;;;;6.50;6.00;;;;;20.36;70.99;101030.22;4995910;28;45506;-75
2021/07/28 00:23:51;;;;;;;;;8.25;8.25;;;;;20.37;71.15;101033.75;4996373;28;45333;-85
2021/07/28 00:26:16;;;;;;;;;8.25;6.25;;;;;20.38;70.87;101043.47;4978723;28;45330;-84
2021/07/28 00:28:42;;;;;;;;;7.25;7.25;;;;;20.37;70.54;101037.28;4996858;28;45542;-78
2021/07/28 00:31:07;;;;;;;;;7.75;7.00;;;;;20.38;70.70;101030.97;4999453;28;45391;-79
2021/07/28 00:33:32;;;;;;;;;5.25;5.25;;;;;20.40;70.74;101036.19;4980360;28;45333;-79
2021/07/28 00:35:59;;;;;;;;;7.75;7.50;;;;;20.37;70.46;101028.44;4998249;28;45320;-79
2021/07/28 00:38:25;;;;;;;;;7.00;6.25;;;;;20.35;70.49;101029.38;4999612;28;45393;-80
2021/07/28 00:40:51;;;;;;;;;6.00;6.00;;;;;20.31;70.16;101033.22;4977938;28;46047;-81
2021/07/28 00:43:16;;;;;;;;;6.25;5.00;;;;;20.28;70.01;101032.56;4994249;28;45251;-80
2021/07/28 00:45:43;;;;;;;;;7.00;6.75;;;;;20.27;70.32;101022.88;4999592;28;45740;-76
2021/07/28 00:48:09;;;;;;;;;8.00;6.75;;;;;20.23;69.93;101020.41;4999537;28;45234;-75
2021/07/28 00:50:37;;;;;;;;;4.25;4.00;;;;;20.21;69.52;101019.69;4998504;28;46413;-81
2021/07/28 00:53:03;;;;;;;;;6.00;5.00;;;;;20.17;70.05;101017.34;4994266;28;45360;-79
2021/07/28 00:55:30;;;;;;;;;7.25;6.00;;;;;20.19;70.04;101023.41;4981735;28;45412;-78
2021/07/28 00:57:59;;;;;;;;;6.75;5.50;;;;;20.16;69.68;101024.47;4998761;28;45473;-77
2021/07/28 01:00:24;;;;;;;;;6.75;5.50;;;;;20.15;69.97;101027.25;4998949;28;47058;-77
2021/07/28 01:02:49;;;;;;;;;6.00;6.00;;;;;20.11;69.73;101031.94;4999111;28;45321;-76
2021/07/28 01:05:15;;;;;;;;;7.75;5.50;;;;;20.10;69.22;101027.56;4978295;28;45249;-76
2021/07/28 01:07:40;;;;;;;;;7.00;5.00;;;;;20.08;69.43;101021.44;4989213;28;45504;-76
2021/07/28 01:10:06;;;;;;;;;4.00;4.00;;;;;20.05;69.22;101029.69;4986858;28;47407;-76
2021/07/28 01:12:34;;;;;;;;;8.75;7.25;;;;;19.99;69.77;101026.47;4998922;28;45352;-75
2021/07/28 01:14:59;;;;;;;;;5.25;3.75;;;;;19.95;69.65;101024.13;5001174;28;45418;-75
2021/07/28 01:17:24;;;;;;;;;6.75;6.75;;;;;19.98;70.05;101035.41;5002017;28;45482;-75
2021/07/28 01:19:57;;;;;;;;;4.75;4.75;;;;;19.99;69.80;101029.13;5001571;28;46433;-75
2021/07/28 01:22:23;;;;;;;;;7.00;7.00;;;;;19.99;69.87;101030.94;4984676;28;45273;-75
2021/07/28 01:24:49;;;;;;;;;6.00;6.00;;;;;19.93;69.60;101042.06;5002569;28;45301;-75
2021/07/28 01:27:16;;;;;;;;;5.25;4.75;;;;;19.89;69.95;101036.91;5001974;28;45296;-75
2021/07/28 01:29:42;;;;;;;;;5.25;5.00;;;;;19.84;69.79;101038.19;5001361;28;45434;-74
2021/07/28 01:32:07;;;;;;;;;6.00;6.00;;;;;19.74;70.03;101036.16;5001556;28;45247;-74
2021/07/28 01:34:34;;;;;;;;;8.25;5.50;;;;;19.72;70.31;101030.06;5002255;28;45294;-74
2021/07/28 01:37:00;;;;;;;;;4.25;4.25;;;;;19.71;69.97;101033.69;5001236;28;45435;-75
2021/07/28 01:39:26;;;;;;;;;6.25;5.00;;;;;19.75;70.15;101037.88;5001825;28;46249;-75
2021/07/28 01:42:01;;;;;;;;;6.00;4.75;;;;;19.81;70.51;101049.91;5001757;28;45392;-75
2021/07/28 01:44:26;;;;;;;;;5.00;5.00;;;;;19.87;70.21;101045.97;4990281;28;45522;-75
2021/07/28 01:46:52;;;;;;;;;5.75;5.00;;;;;19.89;69.62;101052.06;5001753;28;45478;-75
2021/07/28 01:49:18;;;;;;;;;6.25;4.25;;;;;19.86;69.53;101044.25;5000911;28;47349;-75
2021/07/28 01:51:44;;;;;;;;;5.00;4.50;;;;;19.81;69.80;101049.91;5001320;28;45529;-74
2021/07/28 01:54:09;;;;;;;;;6.00;5.75;;;;;19.79;69.81;101055.34;5002146;28;45364;-75
2021/07/28 01:56:42;;;;;;;;;7.00;5.25;;;;;19.78;69.76;101058.97;5001466;28;45426;-75
2021/07/28 01:59:11;;;;;;;;;7.50;6.75;;;;;19.79;69.87;101060.69;5000479;28;45483;-75
2021/07/28 02:01:36;;;;;;;;;7.50;4.00;;;;;19.78;70.01;101060.78;5001894;28;45546;-75
2021/07/28 02:04:02;;;;;;;;;7.00;6.25;;;;;19.80;70.21;101061.56;5001853;28;45202;-75
2021/07/28 02:06:27;;;;;;;;;6.25;4.25;;;;;19.88;69.75;101056.53;5001424;28;45207;-75
2021/07/28 02:08:52;;;;;;;;;6.25;5.00;;;;;19.90;69.72;101051.13;5000739;28;46400;-76
2021/07/28 02:11:18;;;;;;;;;4.75;3.75;;;;;19.95;69.78;101054.28;5001745;28;45237;-75
2021/07/28 02:13:43;;;;;;;;;5.50;4.75;;;;;20.02;69.82;101054.75;5001036;28;45262;-75
2021/07/28 02:16:08;;;;;;;;;4.75;4.75;;;;;20.01;69.34;101053.91;5001195;28;45427;-75
2021/07/28 02:18:34;;;;;;;;;6.00;5.00;;;;;20.04;69.38;101066.16;4983539;28;46956;-82
2021/07/28 02:21:01;;;;;;;;;3.25;3.25;;;;;20.04;68.82;101065.31;5001196;28;45464;-74
2021/07/28 02:23:26;;;;;;;;;5.25;3.25;;;;;20.04;68.39;101068.84;5001525;28;45424;-75
2021/07/28 02:25:52;;;;;;;;;4.50;4.50;;;;;19.98;68.81;101071.91;5000240;28;45486;-75
2021/07/28 02:28:17;;;;;;;;;5.50;4.25;;;;;19.92;68.81;101065.19;5000542;28;45656;-81
2021/07/28 02:30:42;;;;;;;;;5.50;5.00;;;;;19.92;68.90;101065.19;4983264;28;45301;-79
2021/07/28 02:33:08;;;;;;;;;6.00;3.75;;;;;19.92;69.10;101054.53;4983706;28;45377;-80
2021/07/28 02:35:33;;;;;;;;;3.50;3.50;;;;;19.92;68.67;101059.88;5000859;28;45463;-80
2021/07/28 02:37:59;;;;;;;;;6.00;3.50;;;;;19.94;68.69;101057.94;5000425;28;46261;-81
2021/07/28 02:40:24;;;;;;;;;4.75;4.25;;;;;19.94;68.66;101057.09;5000899;28;45368;-78
2021/07/28 02:42:49;;;;;;;;;4.00;3.50;;;;;19.93;68.35;101056.22;5000664;28;45539;-76
2021/07/28 02:45:15;;;;;;;;;7.00;6.00;;;;;19.92;68.15;101056.34;5000543;28;45329;-77
2021/07/28 02:47:41;;;;;;;;;3.00;3.00;;;;;19.88;68.07;101058.34;5000328;28;46666;-75
2021/07/28 02:50:07;;;;;;;;;3.75;3.75;;;;;19.84;68.36;101067.53;5001167;28;45258;-78
2021/07/28 02:52:33;;;;;;;;;7.50;4.75;;;;;19.84;69.09;101070.19;4991770;28;45261;-77
2021/07/28 02:55:07;;;;;;;;;5.25;4.25;;;;;19.83;68.65;101069.31;4983265;28;45454;-75
2021/07/28 02:57:36;;;;;;;;;3.75;3.75;;;;;19.82;68.64;101061.44;4999471;28;45517;-76
2021/07/28 03:00:03;;;;;;;;;4.00;4.00;;;;;19.81;69.18;101067.72;5001018;28;45593;-78
2021/07/28 03:02:28;;;;;;;;;4.75;4.25;;;;;19.85;68.70;101066.56;5000601;28;45384;-78
2021/07/28 03:04:54;;;;;;;;;3.75;3.00;;;;;19.84;67.68;101072.84;4983083;28;46350;-76
2021/07/28 03:07:19;;;;;;;;;4.25;4.00;;;;;19.83;68.18;101071.16;4982164;28;47915;-77
2021/07/28 03:09:44;;;;;;;;;7.50;4.25;;;;;19.82;68.82;101069.44;5000693;28;45329;-77
2021/07/28 03:12:10;;;;;;;;;4.50;3.50;;;;;19.82;67.82;101069.44;5000107;28;45310;-76
2021/07/28 03:14:35;;;;;;;;;4.50;3.50;;;;;19.79;68.16;101079.34;4982819;28;46029;-76
2021/07/28 03:17:00;;;;;;;;;3.25;3.00;;;;;19.84;68.83;101080.84;5000307;28;45519;-76
2021/07/28 03:19:26;;;;;;;;;4.00;4.00;;;;;19.90;68.93;101083.13;5000161;28;45317;-77
2021/07/28 03:21:51;;;;;;;;;4.00;3.25;;;;;19.97;68.79;101079.09;5000805;28;45377;-77
2021/07/28 03:24:19;;;;;;;;;4.50;4.00;;;;;20.03;68.56;101077.78;4971066;28;45895;-76
2021/07/28 03:26:45;;;;;;;;;4.00;3.00;;;;;20.09;67.85;101076.53;5000594;28;45312;-79
2021/07/28 03:29:11;;;;;;;;;3.00;3.00;;;;;20.09;67.92;101076.53;4981598;28;45873;-76
2021/07/28 03:31:37;;;;;;;;;3.00;2.75;;;;;20.10;66.86;101068.41;5000730;28;45432;-76
2021/07/28 03:34:02;;;;;;;;;2.25;2.25;;;;;20.10;67.64;101075.56;4999979;28;45581;-77
2021/07/28 03:36:27;;;;;;;;;3.50;3.50;;;;;20.11;67.83;101074.63;4982308;28;47989;-75
2021/07/28 03:38:53;;;;;;;;;5.75;3.75;;;;;20.16;67.97;101080.50;4999266;28;45304;-76
2021/07/28 03:41:18;;;;;;;;;4.00;3.25;;;;;20.15;67.46;101081.47;5000463;28;45322;-76
2021/07/28 03:43:43;;;;;;;;;5.50;3.50;;;;;20.16;67.64;101088.53;4999279;28;45424;-76
2021/07/28 03:46:08;;;;;;;;;3.25;2.00;;;;;20.18;66.88;101081.25;5000129;28;45321;-76
2021/07/28 03:48:34;;;;;;;;;5.25;4.00;;;;;20.21;67.41;101090.88;4999387;28;45345;-76
2021/07/28 03:51:00;;;;;;;;;2.00;2.00;;;;;20.23;67.17;101092.47;5000167;28;45312;-76
2021/07/28 03:53:26;;;;;;;;;9.25;4.00;;;;;20.24;66.51;101086.19;4982415;28;45495;-76
2021/07/28 03:55:51;;;;;;;;;3.00;3.00;;;;;20.24;66.31;101091.53;4999818;28;45662;-76
2021/07/28 03:58:17;;;;;;;;;4.00;3.00;;;;;20.17;65.68;101086.72;4981660;28;45254;-76
2021/07/28 04:00:42;;;;;;;;;5.25;4.25;;;;;20.09;66.59;101085.38;5000226;28;45158;-75
2021/07/28 04:03:08;;;;;;;;;3.50;3.00;;;;;20.08;65.15;101090.81;5000073;28;45260;-75
2021/07/28 04:05:33;;;;;;;;;4.00;2.50;;;;;20.07;65.54;101091.78;4999527;28;46212;-75
2021/07/28 04:07:59;;;;;;;;;5.00;3.00;;;;;20.05;65.92;101091.88;4998429;28;45394;-74
2021/07/28 04:10:24;;;;;;;;;3.00;3.00;;;;;20.04;65.88;101100.00;4982393;28;45310;-77
2021/07/28 04:12:50;;;;;;;;;3.25;3.00;;;;;20.01;64.96;101101.91;4999201;28;45221;-76
2021/07/28 04:15:16;;;;;;;;;2.00;2.00;;;;;19.93;65.92;101106.91;4999284;28;45446;-77
2021/07/28 04:17:41;;;;;;;;;3.50;3.50;;;;;19.91;66.23;101111.50;4980011;28;45419;-76
2021/07/28 04:20:07;;;;;;;;;3.25;2.75;;;;;19.93;66.61;101111.41;4999772;28;45308;-76
2021/07/28 04:22:33;;;;;;;;;3.50;2.75;;;;;19.94;65.92;101105.09;4975463;28;45618;-76
2021/07/28 04:25:01;;;;;;;;;3.00;2.50;;;;;19.94;66.14;101111.28;4993290;28;45523;-76
2021/07/28 04:27:29;;;;;;;;;3.00;3.00;;;;;19.96;66.23;101114.69;4998977;28;45515;-76
2021/07/28 04:29:55;;;;;;;;;3.00;2.00;;;;;19.92;65.08;101110.53;4999172;28;45219;-76
2021/07/28 04:32:20;;;;;;;;;5.50;3.00;;;;;19.87;66.46;101113.53;4981578;28;45612;-76
2021/07/28 04:34:46;;;;;;;;;3.50;2.25;;;;;19.90;66.89;101115.13;4999129;28;47016;-76
2021/07/28 04:37:11;;;;;;;;;4.75;4.75;;;;;19.94;66.62;101119.28;4999053;28;45387;-76
2021/07/28 04:39:36;;;;;;;;;3.75;3.00;;;;;19.97;66.07;101121.75;4998636;28;45527;-76
2021/07/28 04:42:02;;;;;;;;;4.50;3.00;;;;;19.93;66.13;101122.06;4998870;28;45298;-76
2021/07/28 04:44:27;;;;;;;;;2.25;2.25;;;;;19.92;66.77;101121.22;4999011;28;45310;-80
2021/07/28 04:46:54;;;;;;;;;5.00;3.00;;;;;19.94;65.64;101121.09;4998279;28;45400;-75
2021/07/28 04:49:20;;;;;;;;;3.50;3.00;;;;;19.90;65.91;101123.13;5001467;28;45325;-75
2021/07/28 04:51:45;;;;;;;;;3.00;1.75;;;;;19.88;65.62;101127.69;5002735;28;45451;-79
2021/07/28 04:54:10;;;;;;;;;3.00;3.00;;;;;19.82;65.03;101123.63;5002674;28;45365;-79
2021/07/28 04:56:36;;;;;;;;;2.25;2.25;;;;;19.78;66.13;101124.78;5002241;28;45285;-80
2021/07/28 04:59:02;;;;;;;;;5.50;2.00;;;;;19.73;65.61;101125.09;4983946;28;45424;-78
2021/07/28 05:01:27;;;;;;;;;3.50;2.50;;;;;19.67;65.35;101120.16;5002667;28;45215;-79
2021/07/28 05:03:52;;;;;;;;;3.75;3.00;;;;;19.59;66.28;101128.66;4984699;28;47414;-80
2021/07/28 05:06:18;;;;;;;;;3.50;3.00;;;;;19.55;65.75;101122.69;5002551;28;46766;-77
2021/07/28 05:08:43;;;;;;;;;2.00;2.00;;;;;19.52;66.43;101127.38;5002285;28;45481;-76
2021/07/28 05:11:08;;;;;;;;;1.75;1.75;;;;;19.43;66.11;101121.66;5001702;28;45236;-77
2021/07/28 05:13:34;;;;;;;;;4.00;4.00;;;;;19.42;66.50;101127.09;5001434;28;45289;-77
2021/07/28 05:15:59;;;;;;;;;3.75;2.75;;;;;19.37;66.46;101126.53;5002595;28;45252;-77
2021/07/28 05:18:24;;;;;;;;;3.00;3.00;;;;;19.42;67.20;101127.09;5002631;28;45283;-80
2021/07/28 05:20:50;;;;;;;;;4.00;4.00;;;;;19.52;65.99;101132.69;4984365;28;47439;-79
2021/07/28 05:23:15;;;;;;;;;1.75;1.75;;;;;19.52;66.44;101138.03;4984316;28;47456;-77
2021/07/28 05:25:40;;;;;;;;;3.50;3.00;;;;;19.54;65.44;101141.44;5002511;28;45188;-77
2021/07/28 05:28:06;;;;;;;;;2.00;2.00;;;;;19.53;65.47;101139.75;5001688;28;45203;-76
2021/07/28 05:30:32;;;;;;;;;3.25;1.50;;;;;19.50;65.19;101138.13;4998081;28;46814;-75
2021/07/28 05:32:57;;;;;;;;;5.00;1.00;;;;;19.46;65.61;101141.94;4995484;28;45563;-75
2021/07/28 05:35:23;;;;;;;;;3.00;2.00;;;;;19.45;66.44;101134.91;4975669;28;45779;-75
2021/07/28 05:37:48;;;;;;;;;3.75;2.75;;;;;19.48;66.08;101137.38;4986112;28;46062;-75
2021/07/28 05:40:14;;;;;;;;;2.75;2.75;;;;;19.55;66.07;101144.03;4979751;28;47224;-75
2021/07/28 05:42:39;;;;;;;;;4.00;2.00;;;;;19.63;65.03;101132.00;4986585;28;46235;-75
2021/07/28 05:45:05;;;;;;;;;5.00;2.00;;;;;19.63;65.53;101137.34;4990116;28;45444;-75
2021/07/28 05:47:30;;;;;;;;;4.00;3.00;;;;;19.58;64.87;101147.44;4976079;28;45350;-74
2021/07/28 05:49:58;;;;;;;;;3.00;3.00;;;;;19.52;65.51;101148.69;4993546;28;45574;-75
2021/07/28 05:52:23;;;;;;;;;2.00;2.00;;;;;19.44;65.18;101151.84;4993369;28;45450;-75
2021/07/28 05:54:49;;;;;;;;;3.50;2.00;;;;;19.45;65.81;101153.56;4993102;28;45273;-75
2021/07/28 05:57:14;;;;;;;;;2.00;2.00;;;;;19.43;65.90;101148.31;4998227;28;45198;-75
2021/07/28 05:59:39;;;;;;;;;4.00;4.00;;;;;19.49;66.92;101154.22;4998635;28;45224;-75
2021/07/28 06:02:05;;;;;;;;;4.75;3.75;;;;;19.61;65.87;101155.22;4998242;28;45317;-75
2021/07/28 06:04:30;;;;;;;;;3.75;2.00;;;;;19.67;65.89;101160.16;4999799;28;45273;-75
2021/07/28 06:06:55;;;;;;;;;2.75;2.75;;;;;19.72;65.86;101168.72;4999870;28;45361;-75
2021/07/28 06:09:21;;;;;;;;;3.00;3.00;;;;;19.82;66.22;101154.78;4999143;28;45486;-74
2021/07/28 06:11:46;;;;;;;;;4.25;2.50;;;;;19.88;65.78;101170.38;4998731;28;46455;-75
2021/07/28 06:14:11;;;;;;;;;4.00;3.00;;;;;19.93;65.18;101165.59;4998850;28;45515;-75
2021/07/28 06:16:39;;;;;;;;;2.75;2.75;;;;;19.97;65.70;101167.13;5000391;28;45340;-75
2021/07/28 06:19:04;;;;;;;;;4.00;2.25;;;;;20.00;63.88;101164.22;4995893;28;45664;-74
2021/07/28 06:21:29;;;;;;;;;4.50;4.00;;;;;19.95;64.58;101161.00;4991697;28;45356;-74
2021/07/28 06:23:59;;;;;;;;;3.75;2.00;;;;;19.95;65.49;101173.50;4985917;28;45270;-74
2021/07/28 06:26:24;;;;;;;;;5.00;3.50;;;;;19.98;65.25;101166.13;4989084;28;45286;-74
2021/07/28 06:28:49;;;;;;;;;4.00;3.00;;;;;20.06;65.54;101172.78;4998388;28;45290;-74
2021/07/28 06:31:16;;;;;;;;;1.25;1.25;;;;;20.11;65.31;101176.88;5000882;28;47537;-74
2021/07/28 06:33:41;;;;;;;;;4.00;2.00;;;;;20.15;65.57;101172.19;4993852;28;45751;-74
2021/07/28 06:36:07;;;;;;;;;5.25;4.00;;;;;20.21;65.10;101171.78;4993348;28;45783;-74
2021/07/28 06:38:32;;;;;;;;;3.00;1.50;;;;;20.28;64.81;101176.69;4999664;28;45562;-74
2021/07/28 06:40:57;;;;;;;;;2.50;2.25;;;;;20.32;64.51;101179.03;4980586;28;46973;-74
2021/07/28 06:43:23;;;;;;;;;2.25;2.00;;;;;20.37;64.79;101181.44;4997866;28;45287;-74
2021/07/28 06:45:48;;;;;;;;;2.50;2.50;;;;;20.42;64.24;101176.59;4998943;28;45480;-74
2021/07/28 06:48:14;;;;;;;;;2.50;2.00;;;;;20.45;64.10;101168.41;4998742;28;45616;-74
2021/07/28 06:50:39;;;;;;;;;5.00;2.00;;;;;20.50;63.59;101170.75;4999669;28;45669;-74
2021/07/28 06:53:04;;;;;;;;;3.00;2.00;;;;;20.56;63.36;101174.81;4997470;28;45682;-74
2021/07/28 06:55:29;;;;;;;;;3.50;2.25;;;;;20.53;63.10;101175.03;4998681;28;45500;-74
2021/07/28 06:57:55;;;;;;;;;1.25;1.25;;;;;20.50;63.67;101172.56;4996985;28;45619;-74
2021/07/28 07:00:20;;;;;;;;;2.00;2.00;;;;;20.53;63.84;101175.03;4982240;28;46027;-74
2021/07/28 07:02:46;;;;;;;;;2.00;2.00;;;;;20.56;63.64;101182.84;4981971;28;48434;-75
2021/07/28 07:05:11;;;;;;;;;4.00;4.00;;;;;20.55;63.13;101189.13;5000480;28;45270;-74
2021/07/28 07:07:37;;;;;;;;;2.50;2.00;;;;;20.55;63.67;101191.78;5000377;28;45385;-74
2021/07/28 07:10:08;;;;;;;;;2.25;2.00;;;;;20.49;62.84;101189.56;4998416;28;46040;-74
2021/07/28 07:12:34;;;;;;;;;2.75;2.00;;;;;20.41;63.33;101185.59;4997535;28;45797;-74
2021/07/28 07:15:00;;;;;;;;;2.00;2.00;;;;;20.39;63.54;101192.84;4996998;28;45471;-74
2021/07/28 07:17:25;;;;;;;;;3.25;3.00;;;;;20.40;63.61;101185.69;4992832;28;45315;-74
2021/07/28 07:19:50;;;;;;;;;3.00;2.00;;;;;20.45;63.69;101191.56;4999868;28;45445;-74
2021/07/28 07:22:16;;;;;;;;;4.50;3.75;;;;;20.51;63.69;101188.50;4999290;28;45345;-74
2021/07/28 07:24:43;;;;;;;;;5.00;3.00;;;;;20.53;63.71;101186.56;4996957;28;45427;-74
2021/07/28 07:27:08;;;;;;;;;4.00;4.00;;;;;20.49;63.61;101186.88;4996715;28;45430;-74
2021/07/28 07:29:34;;;;;;;;;4.25;3.50;;;;;20.48;62.67;101191.38;4981739;28;47880;-74
2021/07/28 07:32:00;;;;;;;;;3.00;3.00;;;;;20.42;63.24;101192.63;4999376;28;45178;-74
2021/07/28 07:34:25;;;;;;;;;3.00;3.00;;;;;20.43;63.77;101194.34;4999376;28;45210;-74
2021/07/28 07:36:50;;;;;;;;;3.25;3.25;;;;;20.49;63.23;101194.91;5000503;28;45139;-74
2021/07/28 07:39:16;;;;;;;;;6.00;4.25;;;;;20.50;63.09;101186.75;4985788;28;46028;-74
2021/07/28 07:41:41;;;;;;;;;4.75;3.50;;;;;20.54;63.19;101192.75;4992356;28;45362;-74
2021/07/28 07:44:06;;;;;;;;;4.00;1.75;;;;;20.58;63.42;101194.25;4998865;28;45577;-74
2021/07/28 07:46:32;;;;;;;;;4.00;4.00;;;;;20.64;63.51;101199.16;4997636;28;45612;-73
2021/07/28 07:48:57;;;;;;;;;4.25;4.00;;;;;20.72;63.40;101195.13;4999670;28;45353;-74
2021/07/28 07:51:26;;;;;;;;;4.00;2.50;;;;;20.75;63.21;101194.91;4999977;28;45257;-74
2021/07/28 07:53:51;;;;;;;;;8.00;4.00;;;;;20.73;62.32;101191.47;4999641;28;45423;-74
2021/07/28 07:56:17;;;;;;;;;3.50;3.50;;;;;20.68;62.41;101198.00;4998299;28;45487;-74
2021/07/28 07:58:42;;;;;;;;;4.00;4.00;;;;;20.64;61.86;101196.50;4999081;28;46391;-74
2021/07/28 08:01:09;;;;;;;;;6.25;3.50;;;;;20.57;62.63;101197.88;4981215;28;45280;-74
2021/07/28 08:03:35;;;;;;;;;1.00;0.50;;;;;20.57;62.78;101192.53;4980185;28;45524;-75
2021/07/28 08:06:01;;;;;;;;;4.25;2.75;;;;;20.55;63.22;101195.31;5000141;28;45278;-75
2021/07/28 08:08:26;;;;;;;;;3.25;3.00;;;;;20.60;63.15;101197.66;4998503;28;46100;-75
2021/07/28 08:10:53;;;;;;;;;2.50;2.25;;;;;20.62;62.25;101187.72;5000007;28;45581;-74
2021/07/28 08:13:18;;;;;;;;;5.50;3.50;;;;;20.66;62.94;101199.94;4999801;28;45260;-75
2021/07/28 08:15:43;;;;;;;;;3.50;3.00;;;;;20.69;62.47;101188.19;4981929;28;46174;-75
2021/07/28 18:01:21;;;;;;;;;3.00;3.00;;;;;22.81;51.02;101103.28;5755748;23;45858;-78
2021/07/28 18:03:52;;;;;;;;;2.00;2.00;;;;;22.72;49.59;101104.00;4921892;28;45238;-78
2021/07/28 18:06:17;;;;;;;;;3.00;3.00;;;;;22.65;50.69;101109.81;4924265;28;45296;-78
2021/07/28 18:08:43;;;;;;;;;4.67;2.00;;;;;22.56;50.28;101105.19;4907290;28;47099;-78
2021/07/28 18:11:08;;;;;;;;;2.50;2.50;;;;;22.45;50.14;101106.88;4922619;28;45262;-79
2021/07/28 18:13:33;;;;;;;;;3.75;3.25;;;;;22.39;50.93;101102.00;4923836;28;45260;-79
2021/07/28 18:15:59;;;;;;;;;5.25;4.00;;;;;22.30;50.44;101106.25;4922627;28;45491;-79
2021/07/28 18:18:24;;;;;;;;;2.25;2.25;;;;;22.21;49.80;101102.47;4923184;28;45440;-79
2021/07/28 18:20:50;;;;;;;;;4.00;4.00;;;;;22.13;49.89;101111.09;4922534;28;46375;-79
2021/07/28 18:23:15;;;;;;;;;4.00;3.00;;;;;22.09;49.47;101108.75;4923794;28;45152;-79
2021/07/28 18:25:40;;;;;;;;;2.50;2.50;;;;;22.03;49.62;101112.75;4921211;28;45603;-79
2021/07/28 18:28:08;;;;;;;;;3.00;3.00;;;;;21.99;49.29;101112.16;4922042;28;46977;-79
2021/07/28 18:30:33;;;;;;;;;4.50;2.00;;;;;21.98;49.23;101113.09;4936739;28;45419;-79
2021/07/28 18:32:59;;;;;;;;;2.25;2.25;;;;;21.98;49.41;101115.78;4927437;28;45537;-79
2021/07/28 18:35:27;;;;;;;;;4.50;3.50;;;;;22.01;49.66;101110.19;4932354;28;45341;-79
2021/07/28 18:37:53;;;;;;;;;2.00;2.00;;;;;22.02;50.13;101111.91;4925634;28;45449;-79
2021/07/28 18:40:18;;;;;;;;;4.25;4.25;;;;;22.01;49.22;101112.03;4922476;28;46476;-79
2021/07/28 18:42:44;;;;;;;;;1.75;1.75;;;;;21.98;48.99;101110.44;4925877;28;45412;-78
2021/07/28 18:45:09;;;;;;;;;3.50;3.00;;;;;21.95;49.24;101115.19;4923690;28;45198;-79
2021/07/28 18:47:35;;;;;;;;;5.25;4.75;;;;;21.91;48.95;101118.06;4933750;28;45225;-79
2021/07/28 18:50:00;;;;;;;;;2.25;2.25;;;;;21.90;47.66;101116.34;4933776;28;45447;-79
2021/07/28 18:52:25;;;;;;;;;3.00;2.00;;;;;21.90;49.32;101124.38;4924824;28;45444;-78
2021/07/28 18:54:51;;;;;;;;;3.00;3.00;;;;;21.89;48.62;101124.50;4932964;28;45299;-77
2021/07/28 18:57:16;;;;;;;;;4.00;4.00;;;;;21.90;49.41;101127.06;4904535;28;46306;-78
2021/07/28 18:59:42;;;;;;;;;5.25;4.25;;;;;21.89;49.92;101124.50;4905530;28;46927;-78
2021/07/28 19:02:07;;;;;;;;;2.00;2.00;;;;;21.88;49.98;101133.50;4921220;28;45507;-78
2021/07/28 19:04:32;;;;;;;;;4.00;4.00;;;;;21.88;49.71;101131.69;4920456;28;45484;-77
2021/07/28 19:06:58;;;;;;;;;2.25;2.25;;;;;21.87;49.92;101137.16;4921308;28;45239;-78
2021/07/28 19:09:24;;;;;;;;;2.50;2.50;;;;;21.85;49.64;101133.72;4935376;28;48422;-78
2021/07/28 19:11:49;;;;;;;;;2.25;2.00;;;;;21.81;50.25;101136.63;4921009;28;45271;-78
2021/07/28 19:14:15;;;;;;;;;3.00;3.00;;;;;21.79;48.95;101135.03;4921990;28;45331;-77
2021/07/28 19:16:44;;;;;;;;;2.25;1.75;;;;;21.78;50.23;101138.69;4909313;28;46261;-78
2021/07/28 19:19:10;;;;;;;;;2.75;2.75;;;;;21.77;50.57;101135.16;4923118;28;45387;-78
2021/07/28 19:21:37;;;;;;;;;4.00;3.75;;;;;21.73;49.45;101136.31;4921195;28;45457;-78
2021/07/28 19:24:04;;;;;;;;;3.00;2.00;;;;;21.71;49.65;101140.94;4905196;28;45439;-78
2021/07/28 19:26:30;;;;;;;;;4.00;3.50;;;;;21.73;49.88;101140.84;4917404;28;45405;-78
2021/07/28 19:28:56;;;;;;;;;4.00;2.50;;;;;21.71;49.57;101135.59;4921883;28;46383;-78
2021/07/28 19:31:21;;;;;;;;;2.50;2.50;;;;;21.71;50.50;101146.28;4915411;28;45197;-78
2021/07/28 19:33:47;;;;;;;;;2.25;2.25;;;;;21.69;50.18;101143.75;4922444;28;45196;-78
2021/07/28 19:36:12;;;;;;;;;3.25;3.25;;;;;21.69;50.40;101140.19;4927344;28;45598;-77
2021/07/28 19:38:37;;;;;;;;;3.00;3.00;;;;;21.66;51.17;101140.41;4916331;28;45461;-78
2021/07/28 19:41:03;;;;;;;;;3.00;2.50;;;;;21.66;50.46;101153.78;4917815;28;45212;-78
2021/07/28 19:43:28;;;;;;;;;5.00;3.25;;;;;21.63;51.59;101156.72;4921765;28;45569;-77
2021/07/28 19:45:53;;;;;;;;;3.00;3.00;;;;;21.60;51.08;101163.16;4921299;28;45449;-78
2021/07/28 19:48:21;;;;;;;;;3.00;3.00;;;;;21.56;51.08;101167.00;4921827;28;46240;-78
2021/07/28 19:50:48;;;;;;;;;5.00;3.00;;;;;21.50;50.87;101167.47;4904597;28;45581;-78
2021/07/28 19:53:14;;;;;;;;;2.75;2.75;;;;;21.48;52.29;101172.94;4916908;28;45466;-78
2021/07/28 19:55:39;;;;;;;;;2.75;2.75;;;;;21.47;50.22;101176.56;4928224;28;45311;-78
2021/07/28 19:58:05;;;;;;;;;3.50;2.75;;;;;21.43;50.90;101183.09;4922004;28;45406;-78
2021/07/28 20:00:31;;;;;;;;;4.00;3.00;;;;;21.36;50.15;101180.84;4905145;28;45908;-78
2021/07/28 20:02:56;;;;;;;;;3.75;2.00;;;;;21.35;50.76;101189.00;4921203;28;45381;-78
2021/07/28 20:05:21;;;;;;;;;5.00;3.25;;;;;21.32;51.78;101192.75;4915957;28;45507;-78
2021/07/28 20:07:47;;;;;;;;;3.00;3.00;;;;;21.30;50.30;101189.34;4904267;28;47113;-77
2021/07/28 20:10:13;;;;;;;;;3.25;3.25;;;;;21.28;51.12;101191.25;4920494;28;45152;-78
2021/07/28 20:12:41;;;;;;;;;5.50;4.50;;;;;21.29;51.40;101202.78;4915173;28;46689;-78
2021/07/28 20:15:09;;;;;;;;;4.00;3.75;;;;;21.25;51.34;101197.69;4919848;28;45538;-78
2021/07/28 20:17:37;;;;;;;;;2.75;2.25;;;;;21.25;51.38;101197.69;4921462;28;46569;-78
2021/07/28 20:20:03;;;;;;;;;3.00;3.00;;;;;21.23;49.13;101202.28;4921957;28;45313;-78
2021/07/28 20:22:28;;;;;;;;;5.75;3.25;;;;;21.23;49.91;101202.28;4922318;28;45223;-78
2021/07/28 20:24:54;;;;;;;;;3.00;3.00;;;;;21.22;50.72;101208.59;4921637;28;45305;-78
2021/07/28 20:27:19;;;;;;;;;3.75;2.00;;;;;21.19;49.87;101203.44;4918641;28;46397;-78
2021/07/28 20:29:45;;;;;;;;;4.50;3.00;;;;;21.19;48.94;101206.13;4920674;28;45325;-77
2021/07/28 20:32:12;;;;;;;;;4.00;2.00;;;;;21.18;49.06;101211.59;4921300;28;45306;-77
2021/07/28 20:34:39;;;;;;;;;3.00;3.00;;;;;21.13;49.85;101206.56;4927266;28;45330;-78
2021/07/28 20:37:06;;;;;;;;;1.00;1.00;;;;;21.12;47.51;101207.53;4920086;28;46260;-77
2021/07/28 20:39:31;;;;;;;;;2.00;1.00;;;;;21.11;48.09;101213.84;4918453;28;45435;-78
2021/07/28 20:41:56;;;;;;;;;2.25;2.25;;;;;21.08;48.16;101214.91;4919417;28;45496;-78
2021/07/28 20:44:22;;;;;;;;;2.00;2.00;;;;;21.07;48.60;101215.00;4919720;28;46100;-78
2021/07/28 20:46:47;;;;;;;;;4.25;2.00;;;;;21.06;49.35;101222.19;4907888;28;47492;-78
2021/07/28 20:49:12;;;;;;;;;2.00;2.00;;;;;21.06;49.67;101222.19;4910132;28;45398;-77
2021/07/28 20:51:38;;;;;;;;;2.00;2.00;;;;;21.05;49.33;101223.16;4918495;28;45365;-78
2021/07/28 20:54:03;;;;;;;;;2.00;2.00;;;;;21.05;48.21;101217.81;4921588;28;45218;-78
2021/07/28 20:56:28;;;;;;;;;1.75;1.75;;;;;21.03;49.84;101217.06;4903749;28;48469;-78
2021/07/28 20:58:54;;;;;;;;;1.50;1.50;;;;;20.99;49.16;101223.56;4920289;28;45392;-78
2021/07/28 21:01:19;;;;;;;;;5.50;3.00;;;;;20.97;49.34;101220.97;4906080;28;45239;-78
2021/07/28 21:03:45;;;;;;;;;1.75;1.75;;;;;20.91;48.76;101222.25;4904001;28;46223;-78
2021/07/28 21:06:10;;;;;;;;;3.00;3.00;;;;;20.89;49.85;101218.84;4921485;28;46384;-77